NFSM7: N Fork Spring River nr Purcell, MO

                                SHEF ID:       NFSM7     N Fork Spring River nr Purcell, MO
STATION TYPE:

STAGE RIV-FLOW
ft cfs
Ccp-Rev Ccp-Rev
(America/Chicago)
04/27 00:00 4.79 447
04/27 01:00 5.10 552
04/27 02:00 5.42 673
04/27 03:00 5.79 826
04/27 04:00 5.87 861
04/27 05:00 5.79 826
04/27 06:00 5.65 767
04/27 07:00 5.54 721
04/27 08:00 5.45 685
04/27 09:00 5.37 654
04/27 10:00 5.31 630
04/27 11:00 5.23 600
04/27 12:00 5.17 578
04/27 13:00 5.13 563
04/27 14:00 5.09 549
04/27 15:00 5.08 545
04/27 16:00 5.05 535
04/27 17:00 5.03 528
04/27 18:00 5.02 524
04/27 19:00 5.00 517
04/27 20:00 4.97 507
04/27 21:00 4.94 496
04/27 22:00 4.90 483
04/27 23:00 ---- ----
Data processed at Tue 28Apr2026 04:45 GMT

NOTICE: If you are parsing this page

Please convert to using our Data API. Starting early 2026 we will be migrating to: https://water.usace.army.mil with modern pages rendered in JavaScript. When this migration completes you will no longer be able to scrape this page! CWMSDataAPI (CDA)

Timeseries IDs (TSIDs)

TSIDs used from left to right in the data table
PURS.Stage.Inst.1Hour.0.Ccp-Rev
PURS.Flow.Inst.1Hour.0.Ccp-Rev

                            

All information presented herein is the property of the government of the United States of America and may be revised or deleted at any time without prior notice. Dissemination of this information without the expressed written consent of the Public Affairs Office, Tulsa District U.S. Army Corps of Engineers is strictly prohibited. These data are gathered electronically and, as presented, have NOT undergone any form of quality control. These data are NOT guaranteed to be valid or correct.